Barksdale AFB

About
Name: Barksdale AFB
Identifier:  BAD/KBAD
Owner:  Department of Defense
Operator:  US Air Force
Local Time:  21. Sep 07:01 CDT
Description: Barksdale Air Force Base is a United States Air Force base in northwest Louisiana, United States, in Bossier Parish. It is contiguous to Bossier City, Louisiana along the base's western and northwestern edge. Barksdale Air Force Base occupies more than 22,000 acres east of Bossier City and along the southern edge of Interstate Highway 20. More than 15,000 active-duty and Air Force Reserve members serve at Barksdale.
Source: Wikipedia
Location
Statistics
Flights per Day:
0 flights
Distance: 1,864km (1,158mi)
Flights delayed:
0% (0 flights per day delayed)
Delay Average: 13 minutes
Current Weather
 22 C (Humidity: 100%)
  5kt (9km/h / 5mph) from 140°
  16km (10 mi.)
 
 METAR KBAD 211056Z AUTO 14005KT 10SM CLR 22/22 A3010 RMK AO2 SLP194 T02160216

Current Delays

Departures
N/A
Arrivals
N/A

Destinations

Top Destinations
Airport Flights
per week
Seats
per week
  Minot (MIB) 0 43 0 6
  Valparaiso (VPS) 0 - 0 0

Airlines & Planes

Top Airlines
Airline Flights
per Day
Seats
per Day
  Allegiant Air 0 6
Top Plane Types
Model Flights Seats
Airbus A320 0.1/day 6/day 6.233333333333333